sensor_id;sensor_type;location;lat;lon;timestamp;pressure;altitude;pressure_sealevel;temperature;humidity
3132;BME280;62090;52.330;9.104;2023-05-16T00:00:30;100922.19;;;13.90;78.99
3132;BME280;62090;52.330;9.104;2023-05-16T00:03:01;100896.88;;;13.52;80.00
3132;BME280;62090;52.330;9.104;2023-05-16T00:05:31;100921.13;;;13.74;80.36
3132;BME280;62090;52.330;9.104;2023-05-16T00:08:02;100921.69;;;13.57;80.94
3132;BME280;62090;52.330;9.104;2023-05-16T00:10:34;100938.84;;;13.62;81.54
3132;BME280;62090;52.330;9.104;2023-05-16T00:13:04;100932.91;;;13.65;81.27
3132;BME280;62090;52.330;9.104;2023-05-16T00:15:35;100906.00;;;13.35;81.28
3132;BME280;62090;52.330;9.104;2023-05-16T00:18:05;100924.88;;;13.42;82.05
3132;BME280;62090;52.330;9.104;2023-05-16T00:20:35;100900.88;;;13.35;82.09
3132;BME280;62090;52.330;9.104;2023-05-16T00:23:06;100933.66;;;13.58;81.85
3132;BME280;62090;52.330;9.104;2023-05-16T00:25:38;100864.72;;;13.14;81.80
3132;BME280;62090;52.330;9.104;2023-05-16T00:28:08;100910.56;;;13.54;81.61
3132;BME280;62090;52.330;9.104;2023-05-16T00:30:38;100929.56;;;13.69;81.45
3132;BME280;62090;52.330;9.104;2023-05-16T00:33:07;100933.00;;;13.71;81.95
3132;BME280;62090;52.330;9.104;2023-05-16T00:35:37;100934.91;;;13.85;80.94
3132;BME280;62090;52.330;9.104;2023-05-16T00:38:07;100936.69;;;13.91;80.67
3132;BME280;62090;52.330;9.104;2023-05-16T00:40:39;100933.31;;;13.90;80.23
3132;BME280;62090;52.330;9.104;2023-05-16T00:43:09;100919.34;;;13.72;80.07
3132;BME280;62090;52.330;9.104;2023-05-16T00:45:39;100926.31;;;13.82;80.58
3132;BME280;62090;52.330;9.104;2023-05-16T00:48:10;100917.63;;;13.71;80.84
3132;BME280;62090;52.330;9.104;2023-05-16T00:50:41;100910.84;;;13.73;81.05
3132;BME280;62090;52.330;9.104;2023-05-16T00:53:11;100928.94;;;13.86;81.06
3132;BME280;62090;52.330;9.104;2023-05-16T00:55:44;100928.81;;;13.77;81.05
3132;BME280;62090;52.330;9.104;2023-05-16T00:58:15;100921.84;;;13.67;81.94
3132;BME280;62090;52.330;9.104;2023-05-16T01:00:45;100921.88;;;13.69;82.70
3132;BME280;62090;52.330;9.104;2023-05-16T01:03:17;100913.41;;;13.73;81.63
3132;BME280;62090;52.330;9.104;2023-05-16T01:05:47;100916.59;;;13.58;80.84
3132;BME280;62090;52.330;9.104;2023-05-16T01:08:17;100924.22;;;13.55;81.36
3132;BME280;62090;52.330;9.104;2023-05-16T01:10:59;100862.81;;;13.04;80.82
3132;BME280;62090;52.330;9.104;2023-05-16T01:13:37;100932.50;;;13.39;81.36
3132;BME280;62090;52.330;9.104;2023-05-16T01:16:21;100895.47;;;13.16;81.09
3132;BME280;62090;52.330;9.104;2023-05-16T01:18:59;100920.41;;;13.29;81.18
3132;BME280;62090;52.330;9.104;2023-05-16T01:21:41;100921.81;;;13.11;82.12
3132;BME280;62090;52.330;9.104;2023-05-16T01:24:28;100925.09;;;13.04;82.20
3132;BME280;62090;52.330;9.104;2023-05-16T01:27:04;100930.19;;;13.06;82.80
3132;BME280;62090;52.330;9.104;2023-05-16T01:29:34;100930.13;;;13.00;82.81
3132;BME280;62090;52.330;9.104;2023-05-16T01:32:05;100926.72;;;13.01;83.51
3132;BME280;62090;52.330;9.104;2023-05-16T01:34:35;100908.81;;;13.01;83.24
3132;BME280;62090;52.330;9.104;2023-05-16T01:37:10;100924.56;;;13.24;82.56
3132;BME280;62090;52.330;9.104;2023-05-16T01:39:46;100941.53;;;13.17;81.88
3132;BME280;62090;52.330;9.104;2023-05-16T01:42:23;100934.84;;;13.25;82.39
3132;BME280;62090;52.330;9.104;2023-05-16T01:44:58;100911.50;;;13.08;81.71
3132;BME280;62090;52.330;9.104;2023-05-16T01:47:32;100939.25;;;13.32;81.57
3132;BME280;62090;52.330;9.104;2023-05-16T01:50:09;100943.44;;;13.29;81.06
3132;BME280;62090;52.330;9.104;2023-05-16T01:52:45;100936.69;;;13.32;80.77
3132;BME280;62090;52.330;9.104;2023-05-16T01:55:28;100901.88;;;12.94;79.80
3132;BME280;62090;52.330;9.104;2023-05-16T01:58:04;100937.88;;;13.06;80.18
3132;BME280;62090;52.330;9.104;2023-05-16T02:00:36;100928.25;;;12.90;80.39
3132;BME280;62090;52.330;9.104;2023-05-16T02:03:06;100946.16;;;12.91;79.71
3132;BME280;62090;52.330;9.104;2023-05-16T02:05:37;100946.06;;;12.87;79.76
3132;BME280;62090;52.330;9.104;2023-05-16T02:08:09;100933.16;;;12.81;80.05
3132;BME280;62090;52.330;9.104;2023-05-16T02:10:40;100929.47;;;12.63;79.58
3132;BME280;62090;52.330;9.104;2023-05-16T02:13:13;100932.09;;;12.69;79.88
3132;BME280;62090;52.330;9.104;2023-05-16T02:15:42;100960.47;;;12.82;79.97
3132;BME280;62090;52.330;9.104;2023-05-16T02:18:12;100934.50;;;12.60;80.93
3132;BME280;62090;52.330;9.104;2023-05-16T02:20:43;100961.38;;;12.84;81.29
3132;BME280;62090;52.330;9.104;2023-05-16T02:23:14;100969.13;;;12.88;81.41
3132;BME280;62090;52.330;9.104;2023-05-16T02:25:44;100949.53;;;12.89;81.34
3132;BME280;62090;52.330;9.104;2023-05-16T02:28:17;100953.91;;;12.94;80.82
3132;BME280;62090;52.330;9.104;2023-05-16T02:30:55;100960.72;;;12.94;80.43
3132;BME280;62090;52.330;9.104;2023-05-16T02:33:25;100963.97;;;12.87;80.64
3132;BME280;62090;52.330;9.104;2023-05-16T02:35:55;100966.53;;;12.87;80.74
3132;BME280;62090;52.330;9.104;2023-05-16T02:38:25;100939.56;;;12.57;81.30
3132;BME280;62090;52.330;9.104;2023-05-16T02:40:55;100982.78;;;12.89;81.52
3132;BME280;62090;52.330;9.104;2023-05-16T02:43:27;100978.63;;;12.94;82.11
3132;BME280;62090;52.330;9.104;2023-05-16T02:45:57;100981.22;;;12.97;83.41
3132;BME280;62090;52.330;9.104;2023-05-16T02:48:27;100987.22;;;12.99;83.91
3132;BME280;62090;52.330;9.104;2023-05-16T02:50:57;100962.94;;;12.77;85.28
3132;BME280;62090;52.330;9.104;2023-05-16T02:53:27;101001.47;;;12.85;85.49
3132;BME280;62090;52.330;9.104;2023-05-16T02:55:57;100930.59;;;12.36;87.02
3132;BME280;62090;52.330;9.104;2023-05-16T02:58:29;101001.09;;;12.66;88.56
3132;BME280;62090;52.330;9.104;2023-05-16T03:00:59;100978.34;;;12.37;88.61
3132;BME280;62090;52.330;9.104;2023-05-16T03:03:30;100952.94;;;12.04;90.05
3132;BME280;62090;52.330;9.104;2023-05-16T03:06:02;101004.03;;;12.44;90.56
3132;BME280;62090;52.330;9.104;2023-05-16T03:08:32;100992.09;;;12.43;90.54
3132;BME280;62090;52.330;9.104;2023-05-16T03:11:02;101000.66;;;12.45;90.13
3132;BME280;62090;52.330;9.104;2023-05-16T03:13:35;100997.28;;;12.46;89.56
3132;BME280;62090;52.330;9.104;2023-05-16T03:16:05;100999.00;;;12.49;89.38
3132;BME280;62090;52.330;9.104;2023-05-16T03:18:35;100971.63;;;12.43;88.29
3132;BME280;62090;52.330;9.104;2023-05-16T03:21:05;100982.84;;;12.50;87.48
3132;BME280;62090;52.330;9.104;2023-05-16T03:23:35;100993.34;;;12.62;86.63
3132;BME280;62090;52.330;9.104;2023-05-16T03:26:04;100998.22;;;12.51;85.35
3132;BME280;62090;52.330;9.104;2023-05-16T03:28:37;100985.22;;;12.41;85.12
3132;BME280;62090;52.330;9.104;2023-05-16T03:31:06;101007.50;;;12.46;84.89
3132;BME280;62090;52.330;9.104;2023-05-16T03:33:36;100990.94;;;12.29;84.13
3132;BME280;62090;52.330;9.104;2023-05-16T03:36:07;101003.13;;;12.41;83.75
3132;BME280;62090;52.330;9.104;2023-05-16T03:38:37;101024.53;;;12.46;82.80
3132;BME280;62090;52.330;9.104;2023-05-16T03:41:07;101023.69;;;12.47;82.57
3132;BME280;62090;52.330;9.104;2023-05-16T03:43:39;101005.81;;;12.47;82.08
3132;BME280;62090;52.330;9.104;2023-05-16T03:46:09;101024.25;;;12.34;81.66
3132;BME280;62090;52.330;9.104;2023-05-16T03:48:39;101027.47;;;12.25;82.45
3132;BME280;62090;52.330;9.104;2023-05-16T03:51:08;101023.25;;;12.27;82.52
3132;BME280;62090;52.330;9.104;2023-05-16T03:53:38;101024.16;;;12.29;82.04
3132;BME280;62090;52.330;9.104;2023-05-16T03:56:08;101031.78;;;12.27;81.66
3132;BME280;62090;52.330;9.104;2023-05-16T03:58:40;101028.50;;;12.33;81.61
3132;BME280;62090;52.330;9.104;2023-05-16T04:01:10;101030.00;;;12.23;81.05
3132;BME280;62090;52.330;9.104;2023-05-16T04:03:40;101022.91;;;12.10;80.38
3132;BME280;62090;52.330;9.104;2023-05-16T04:06:10;101027.88;;;12.06;81.15
3132;BME280;62090;52.330;9.104;2023-05-16T04:08:40;101035.78;;;12.15;80.73
3132;BME280;62090;52.330;9.104;2023-05-16T04:11:10;100990.66;;;11.78;80.54
3132;BME280;62090;52.330;9.104;2023-05-16T04:13:43;101036.50;;;12.11;80.57
3132;BME280;62090;52.330;9.104;2023-05-16T04:16:13;101045.75;;;12.06;80.21
3132;BME280;62090;52.330;9.104;2023-05-16T04:18:42;101047.50;;;12.07;80.29
3132;BME280;62090;52.330;9.104;2023-05-16T04:21:12;101045.69;;;12.03;80.58
3132;BME280;62090;52.330;9.104;2023-05-16T04:23:42;101051.72;;;12.06;80.85
3132;BME280;62090;52.330;9.104;2023-05-16T04:26:12;101055.91;;;12.03;80.67
3132;BME280;62090;52.330;9.104;2023-05-16T04:28:45;101055.16;;;12.07;80.86
3132;BME280;62090;52.330;9.104;2023-05-16T04:31:15;101080.09;;;12.17;80.32
3132;BME280;62090;52.330;9.104;2023-05-16T04:33:45;101066.19;;;12.06;80.72
3132;BME280;62090;52.330;9.104;2023-05-16T04:36:14;101064.19;;;11.93;80.18
3132;BME280;62090;52.330;9.104;2023-05-16T04:38:44;101066.91;;;12.00;80.84
3132;BME280;62090;52.330;9.104;2023-05-16T04:41:14;101083.50;;;12.16;80.52
3132;BME280;62090;52.330;9.104;2023-05-16T04:43:47;101082.38;;;12.06;79.34
3132;BME280;62090;52.330;9.104;2023-05-16T04:46:17;101076.06;;;11.91;79.26
3132;BME280;62090;52.330;9.104;2023-05-16T04:48:47;101090.59;;;11.93;78.48
3132;BME280;62090;52.330;9.104;2023-05-16T04:51:18;101070.38;;;11.69;78.45
3132;BME280;62090;52.330;9.104;2023-05-16T04:53:47;101106.03;;;11.98;78.49
3132;BME280;62090;52.330;9.104;2023-05-16T04:56:17;101089.63;;;11.88;77.85
3132;BME280;62090;52.330;9.104;2023-05-16T04:58:50;101107.66;;;11.94;77.14
3132;BME280;62090;52.330;9.104;2023-05-16T05:01:20;101110.72;;;11.81;76.78
3132;BME280;62090;52.330;9.104;2023-05-16T05:03:50;101109.47;;;11.67;76.68
3132;BME280;62090;52.330;9.104;2023-05-16T05:06:20;101116.09;;;11.60;76.46
3132;BME280;62090;52.330;9.104;2023-05-16T05:08:49;101119.69;;;11.67;76.46
3132;BME280;62090;52.330;9.104;2023-05-16T05:11:19;101115.47;;;11.69;76.08
3132;BME280;62090;52.330;9.104;2023-05-16T05:13:52;101131.66;;;11.69;75.13
3132;BME280;62090;52.330;9.104;2023-05-16T05:16:21;101093.16;;;11.29;75.55
3132;BME280;62090;52.330;9.104;2023-05-16T05:18:51;101144.00;;;11.54;75.83
3132;BME280;62090;52.330;9.104;2023-05-16T05:21:21;101141.69;;;11.62;75.37
3132;BME280;62090;52.330;9.104;2023-05-16T05:23:51;101143.66;;;11.40;75.52
3132;BME280;62090;52.330;9.104;2023-05-16T05:26:21;101148.47;;;11.61;75.83
3132;BME280;62090;52.330;9.104;2023-05-16T05:28:54;101137.75;;;11.73;75.63
3132;BME280;62090;52.330;9.104;2023-05-16T05:31:31;101148.69;;;12.02;75.22
3132;BME280;62090;52.330;9.104;2023-05-16T05:34:02;101088.13;;;11.65;74.30
3132;BME280;62090;52.330;9.104;2023-05-16T05:36:31;101145.38;;;12.04;74.10
3132;BME280;62090;52.330;9.104;2023-05-16T05:39:01;101148.25;;;12.18;72.77
3132;BME280;62090;52.330;9.104;2023-05-16T05:41:31;101148.19;;;12.15;72.68
3132;BME280;62090;52.330;9.104;2023-05-16T05:44:04;101154.03;;;12.11;73.03
3132;BME280;62090;52.330;9.104;2023-05-16T05:46:34;101163.72;;;12.24;73.57
3132;BME280;62090;52.330;9.104;2023-05-16T05:49:04;101158.69;;;12.27;72.99
3132;BME280;62090;52.330;9.104;2023-05-16T05:51:34;101131.69;;;12.38;72.07
3132;BME280;62090;52.330;9.104;2023-05-16T05:54:04;101178.03;;;12.52;71.53
3132;BME280;62090;52.330;9.104;2023-05-16T05:56:34;101178.81;;;12.49;70.86
3132;BME280;62090;52.330;9.104;2023-05-16T05:59:06;101165.25;;;12.52;71.16
3132;BME280;62090;52.330;9.104;2023-05-16T06:01:36;101189.00;;;12.48;70.36
3132;BME280;62090;52.330;9.104;2023-05-16T06:04:06;101178.00;;;12.50;70.98
3132;BME280;62090;52.330;9.104;2023-05-16T06:06:36;101186.63;;;12.55;71.21
3132;BME280;62090;52.330;9.104;2023-05-16T06:09:06;101182.19;;;12.47;70.50
3132;BME280;62090;52.330;9.104;2023-05-16T06:11:36;101174.97;;;12.32;70.67
3132;BME280;62090;52.330;9.104;2023-05-16T06:14:08;101195.84;;;12.49;70.65
3132;BME280;62090;52.330;9.104;2023-05-16T06:16:38;101187.13;;;12.41;71.15
3132;BME280;62090;52.330;9.104;2023-05-16T06:19:08;101210.16;;;12.41;70.60
3132;BME280;62090;52.330;9.104;2023-05-16T06:21:43;101206.84;;;12.12;70.68
3132;BME280;62090;52.330;9.104;2023-05-16T06:24:14;100847.28;;;10.24;71.32
3132;BME280;62090;52.330;9.104;2023-05-16T06:26:44;101212.31;;;12.60;70.50
3132;BME280;62090;52.330;9.104;2023-05-16T06:29:18;101214.03;;;12.98;70.09
3132;BME280;62090;52.330;9.104;2023-05-16T06:31:48;101215.47;;;13.23;68.89
3132;BME280;62090;52.330;9.104;2023-05-16T06:34:18;101223.53;;;13.41;67.21
3132;BME280;62090;52.330;9.104;2023-05-16T06:36:53;101206.81;;;13.59;66.93
3132;BME280;62090;52.330;9.104;2023-05-16T06:39:23;101211.94;;;13.59;66.65
3132;BME280;62090;52.330;9.104;2023-05-16T06:41:53;101219.63;;;13.59;67.16
3132;BME280;62090;52.330;9.104;2023-05-16T06:44:25;101205.31;;;13.26;65.81
3132;BME280;62090;52.330;9.104;2023-05-16T06:46:55;101228.66;;;13.04;66.42
3132;BME280;62090;52.330;9.104;2023-05-16T06:49:25;101222.03;;;13.12;67.09
3132;BME280;62090;52.330;9.104;2023-05-16T06:51:55;101230.53;;;13.11;65.60
3132;BME280;62090;52.330;9.104;2023-05-16T06:54:25;101240.22;;;12.87;66.82
3132;BME280;62090;52.330;9.104;2023-05-16T06:56:54;101231.91;;;12.97;66.82
3132;BME280;62090;52.330;9.104;2023-05-16T06:59:27;101235.03;;;12.84;65.70
3132;BME280;62090;52.330;9.104;2023-05-16T07:01:57;101193.91;;;12.39;66.33
3132;BME280;62090;52.330;9.104;2023-05-16T07:04:27;101220.47;;;12.45;66.50
3132;BME280;62090;52.330;9.104;2023-05-16T07:06:57;101239.03;;;12.73;66.22
3132;BME280;62090;52.330;9.104;2023-05-16T07:09:27;101242.34;;;12.68;65.52
3132;BME280;62090;52.330;9.104;2023-05-16T07:11:57;101209.88;;;12.66;66.47
3132;BME280;62090;52.330;9.104;2023-05-16T07:14:29;101209.59;;;12.54;65.25
3132;BME280;62090;52.330;9.104;2023-05-16T07:16:59;101262.47;;;12.55;65.34
3132;BME280;62090;52.330;9.104;2023-05-16T07:19:29;101208.00;;;12.23;66.69
3132;BME280;62090;52.330;9.104;2023-05-16T07:21:59;101231.56;;;12.82;65.98
3132;BME280;62090;52.330;9.104;2023-05-16T07:24:29;101251.97;;;13.15;64.85
3132;BME280;62090;52.330;9.104;2023-05-16T07:26:59;101248.88;;;13.29;63.64
3132;BME280;62090;52.330;9.104;2023-05-16T07:29:31;101257.88;;;13.12;63.11
3132;BME280;62090;52.330;9.104;2023-05-16T07:32:04;101257.50;;;12.97;63.27
3132;BME280;62090;52.330;9.104;2023-05-16T07:34:34;101238.47;;;12.86;62.70
3132;BME280;62090;52.330;9.104;2023-05-16T07:37:04;101238.56;;;12.89;64.41
3132;BME280;62090;52.330;9.104;2023-05-16T07:39:38;101238.72;;;13.34;63.54
3132;BME280;62090;52.330;9.104;2023-05-16T07:42:09;101253.34;;;13.80;62.81
3132;BME280;62090;52.330;9.104;2023-05-16T07:44:41;101258.34;;;13.33;61.76
3132;BME280;62090;52.330;9.104;2023-05-16T07:47:11;101242.00;;;13.27;61.94
3132;BME280;62090;52.330;9.104;2023-05-16T07:49:41;101236.25;;;13.37;61.66
3132;BME280;62090;52.330;9.104;2023-05-16T07:52:11;101253.06;;;13.66;62.03
3132;BME280;62090;52.330;9.104;2023-05-16T07:54:41;101246.03;;;14.00;60.29
3132;BME280;62090;52.330;9.104;2023-05-16T07:57:12;101246.69;;;13.91;61.35
3132;BME280;62090;52.330;9.104;2023-05-16T07:59:45;101237.50;;;14.01;59.46
3132;BME280;62090;52.330;9.104;2023-05-16T08:02:15;101239.09;;;13.94;58.63
3132;BME280;62090;52.330;9.104;2023-05-16T08:04:45;101246.22;;;14.10;59.25
3132;BME280;62090;52.330;9.104;2023-05-16T08:07:16;101234.84;;;13.96;59.87
3132;BME280;62090;52.330;9.104;2023-05-16T08:09:46;101242.25;;;14.27;59.48
3132;BME280;62090;52.330;9.104;2023-05-16T08:12:15;101251.47;;;14.16;57.96
3132;BME280;62090;52.330;9.104;2023-05-16T08:14:48;101255.81;;;14.20;58.97
3132;BME280;62090;52.330;9.104;2023-05-16T08:17:18;101249.53;;;14.51;57.71
3132;BME280;62090;52.330;9.104;2023-05-16T08:19:47;101221.59;;;14.68;56.25
3132;BME280;62090;52.330;9.104;2023-05-16T08:22:17;101250.53;;;15.16;55.79
3132;BME280;62090;52.330;9.104;2023-05-16T08:24:47;101256.63;;;15.25;54.71
3132;BME280;62090;52.330;9.104;2023-05-16T08:27:17;101260.16;;;14.75;55.64
3132;BME280;62090;52.330;9.104;2023-05-16T08:29:49;101263.22;;;14.52;55.29
3132;BME280;62090;52.330;9.104;2023-05-16T08:32:20;101252.41;;;14.23;54.43
3132;BME280;62090;52.330;9.104;2023-05-16T08:34:50;101244.19;;;14.39;54.11
3132;BME280;62090;52.330;9.104;2023-05-16T08:37:20;101262.66;;;14.71;54.46
3132;BME280;62090;52.330;9.104;2023-05-16T08:39:50;101255.91;;;14.76;55.14
3132;BME280;62090;52.330;9.104;2023-05-16T08:42:20;101236.16;;;14.72;55.34
3132;BME280;62090;52.330;9.104;2023-05-16T08:44:52;101257.44;;;14.65;54.46
3132;BME280;62090;52.330;9.104;2023-05-16T08:47:23;101237.78;;;14.65;54.48
3132;BME280;62090;52.330;9.104;2023-05-16T08:49:56;101226.91;;;14.80;53.27
3132;BME280;62090;52.330;9.104;2023-05-16T08:52:27;101249.09;;;15.40;54.15
3132;BME280;62090;52.330;9.104;2023-05-16T08:55:00;101227.13;;;15.58;51.40
3132;BME280;62090;52.330;9.104;2023-05-16T08:57:37;101253.31;;;15.35;51.43
3132;BME280;62090;52.330;9.104;2023-05-16T09:00:12;101256.50;;;15.15;53.24
3132;BME280;62090;52.330;9.104;2023-05-16T09:02:42;101250.72;;;15.32;52.73
3132;BME280;62090;52.330;9.104;2023-05-16T09:05:14;101251.72;;;15.43;52.16
3132;BME280;62090;52.330;9.104;2023-05-16T09:07:44;101225.22;;;15.45;52.53
3132;BME280;62090;52.330;9.104;2023-05-16T09:10:14;101247.47;;;15.43;51.92
3132;BME280;62090;52.330;9.104;2023-05-16T09:12:45;101231.91;;;15.33;51.98
3132;BME280;62090;52.330;9.104;2023-05-16T09:15:18;101235.22;;;15.24;52.63
3132;BME280;62090;52.330;9.104;2023-05-16T09:17:48;101245.41;;;15.16;51.92
3132;BME280;62090;52.330;9.104;2023-05-16T09:20:19;101237.09;;;15.37;52.04
3132;BME280;62090;52.330;9.104;2023-05-16T09:22:50;101226.09;;;15.47;52.25
3132;BME280;62090;52.330;9.104;2023-05-16T09:25:23;101236.06;;;15.92;51.46
3132;BME280;62090;52.330;9.104;2023-05-16T09:27:59;101238.75;;;16.04;49.23
3132;BME280;62090;52.330;9.104;2023-05-16T09:30:33;101245.31;;;15.77;51.47
3132;BME280;62090;52.330;9.104;2023-05-16T09:33:05;101251.25;;;15.70;51.54
3132;BME280;62090;52.330;9.104;2023-05-16T09:35:35;101247.81;;;15.71;51.34
3132;BME280;62090;52.330;9.104;2023-05-16T09:38:15;101229.81;;;15.69;52.02
3132;BME280;62090;52.330;9.104;2023-05-16T09:40:45;101248.97;;;15.98;51.93
3132;BME280;62090;52.330;9.104;2023-05-16T09:43:16;101249.88;;;16.03;50.88
3132;BME280;62090;52.330;9.104;2023-05-16T09:45:48;101244.78;;;16.08;51.81
3132;BME280;62090;52.330;9.104;2023-05-16T09:48:19;101244.09;;;16.23;51.26
3132;BME280;62090;52.330;9.104;2023-05-16T09:50:52;101240.00;;;16.46;51.14
3132;BME280;62090;52.330;9.104;2023-05-16T09:53:30;101227.19;;;16.52;50.44
3132;BME280;62090;52.330;9.104;2023-05-16T09:56:02;101237.69;;;16.78;50.74
3132;BME280;62090;52.330;9.104;2023-05-16T09:58:34;101239.47;;;16.83;49.96
3132;BME280;62090;52.330;9.104;2023-05-16T10:01:07;101248.25;;;17.16;50.77
3132;BME280;62090;52.330;9.104;2023-05-16T10:03:39;101237.22;;;17.44;49.35
3132;BME280;62090;52.330;9.104;2023-05-16T10:06:10;101237.28;;;17.55;49.73
3132;BME280;62090;52.330;9.104;2023-05-16T10:08:42;101236.50;;;17.79;49.79
3132;BME280;62090;52.330;9.104;2023-05-16T10:11:12;101239.09;;;17.88;48.80
3132;BME280;62090;52.330;9.104;2023-05-16T10:13:43;101220.88;;;17.45;48.19
3132;BME280;62090;52.330;9.104;2023-05-16T10:16:21;101234.44;;;17.03;47.18
3132;BME280;62090;52.330;9.104;2023-05-16T10:18:52;101233.34;;;16.65;48.53
3132;BME280;62090;52.330;9.104;2023-05-16T10:21:24;101245.16;;;16.51;49.45
3132;BME280;62090;52.330;9.104;2023-05-16T10:24:01;101235.38;;;16.09;51.79
3132;BME280;62090;52.330;9.104;2023-05-16T10:26:32;101252.44;;;16.03;52.69
3132;BME280;62090;52.330;9.104;2023-05-16T10:29:03;101255.19;;;16.17;52.68
3132;BME280;62090;52.330;9.104;2023-05-16T10:31:36;101267.19;;;16.20;51.32
3132;BME280;62090;52.330;9.104;2023-05-16T10:34:07;101255.88;;;16.02;52.08
3132;BME280;62090;52.330;9.104;2023-05-16T10:36:37;101242.09;;;15.97;52.87
3132;BME280;62090;52.330;9.104;2023-05-16T10:39:08;101192.94;;;15.64;52.65
3132;BME280;62090;52.330;9.104;2023-05-16T10:41:39;101250.53;;;15.83;51.68
3132;BME280;62090;52.330;9.104;2023-05-16T10:44:12;101258.75;;;15.56;50.71
3132;BME280;62090;52.330;9.104;2023-05-16T10:46:48;101243.59;;;15.12;51.97
3132;BME280;62090;52.330;9.104;2023-05-16T10:49:19;101247.59;;;14.91;52.46
3132;BME280;62090;52.330;9.104;2023-05-16T10:52:06;101268.41;;;15.10;53.00
3132;BME280;62090;52.330;9.104;2023-05-16T10:54:37;101271.13;;;15.21;53.03
3132;BME280;62090;52.330;9.104;2023-05-16T10:57:09;101265.31;;;15.33;52.79
3132;BME280;62090;52.330;9.104;2023-05-16T10:59:43;101269.03;;;15.53;52.05
3132;BME280;62090;52.330;9.104;2023-05-16T11:02:26;101259.03;;;15.77;50.36
3132;BME280;62090;52.330;9.104;2023-05-16T11:05:00;101258.28;;;15.87;50.72
3132;BME280;62090;52.330;9.104;2023-05-16T11:07:31;101250.53;;;15.84;51.02
3132;BME280;62090;52.330;9.104;2023-05-16T11:10:09;101224.94;;;15.93;50.99
3132;BME280;62090;52.330;9.104;2023-05-16T11:12:44;101256.16;;;16.28;50.34
3132;BME280;62090;52.330;9.104;2023-05-16T11:15:22;101257.09;;;16.41;49.81
3132;BME280;62090;52.330;9.104;2023-05-16T11:18:13;101247.97;;;16.76;47.94
3132;BME280;62090;52.330;9.104;2023-05-16T11:20:43;101239.47;;;16.88;48.45
3132;BME280;62090;52.330;9.104;2023-05-16T11:23:21;101237.00;;;17.02;48.96
3132;BME280;62090;52.330;9.104;2023-05-16T11:25:54;101249.19;;;17.31;49.18
3132;BME280;62090;52.330;9.104;2023-05-16T11:28:25;101242.31;;;17.35;49.43
3132;BME280;62090;52.330;9.104;2023-05-16T11:30:57;101257.69;;;17.18;49.43
3132;BME280;62090;52.330;9.104;2023-05-16T11:33:33;101257.56;;;16.96;47.44
3132;BME280;62090;52.330;9.104;2023-05-16T11:36:05;101249.47;;;16.48;49.21
3132;BME280;62090;52.330;9.104;2023-05-16T11:38:38;101272.59;;;16.50;50.58
3132;BME280;62090;52.330;9.104;2023-05-16T11:41:09;101251.13;;;16.42;50.28
3132;BME280;62090;52.330;9.104;2023-05-16T11:43:42;101262.41;;;16.58;51.27
3132;BME280;62090;52.330;9.104;2023-05-16T11:46:13;101260.81;;;16.69;51.80
3132;BME280;62090;52.330;9.104;2023-05-16T11:48:46;101250.63;;;16.81;51.57
3132;BME280;62090;52.330;9.104;2023-05-16T11:51:17;101245.66;;;17.13;50.84
3132;BME280;62090;52.330;9.104;2023-05-16T11:53:47;101256.09;;;17.40;48.40
3132;BME280;62090;52.330;9.104;2023-05-16T11:56:19;101238.91;;;17.36;48.86
3132;BME280;62090;52.330;9.104;2023-05-16T11:58:49;101245.75;;;17.36;49.03
3132;BME280;62090;52.330;9.104;2023-05-16T12:01:19;101246.69;;;17.47;48.25
3132;BME280;62090;52.330;9.104;2023-05-16T12:03:56;101251.88;;;17.57;48.01
3132;BME280;62090;52.330;9.104;2023-05-16T12:06:26;101250.25;;;17.75;48.19
3132;BME280;62090;52.330;9.104;2023-05-16T12:08:57;101219.28;;;17.71;47.15
3132;BME280;62090;52.330;9.104;2023-05-16T12:11:29;101241.69;;;17.85;47.91
3132;BME280;62090;52.330;9.104;2023-05-16T12:13:59;101248.53;;;17.77;46.82
3132;BME280;62090;52.330;9.104;2023-05-16T12:16:29;101219.09;;;17.26;47.25
3132;BME280;62090;52.330;9.104;2023-05-16T12:19:01;101219.81;;;16.98;48.55
3132;BME280;62090;52.330;9.104;2023-05-16T12:21:33;101252.41;;;16.94;49.01
3132;BME280;62090;52.330;9.104;2023-05-16T12:24:03;101259.03;;;16.62;49.49
3132;BME280;62090;52.330;9.104;2023-05-16T12:26:33;101265.41;;;16.13;52.19
3132;BME280;62090;52.330;9.104;2023-05-16T12:29:03;101271.34;;;16.05;54.48
3132;BME280;62090;52.330;9.104;2023-05-16T12:31:35;101294.91;;;15.71;52.59
3132;BME280;62090;52.330;9.104;2023-05-16T12:34:18;101261.16;;;15.45;53.82
3132;BME280;62090;52.330;9.104;2023-05-16T12:36:52;101263.78;;;15.48;53.53
3132;BME280;62090;52.330;9.104;2023-05-16T12:39:22;101280.25;;;15.61;52.57
3132;BME280;62090;52.330;9.104;2023-05-16T12:41:52;101260.19;;;15.36;51.82
3132;BME280;62090;52.330;9.104;2023-05-16T12:44:23;101251.88;;;15.52;53.20
3132;BME280;62090;52.330;9.104;2023-05-16T12:46:52;101248.84;;;15.86;51.79
3132;BME280;62090;52.330;9.104;2023-05-16T12:49:26;101268.91;;;16.19;50.84
3132;BME280;62090;52.330;9.104;2023-05-16T12:51:56;101277.66;;;16.36;50.45
3132;BME280;62090;52.330;9.104;2023-05-16T12:54:31;101270.84;;;16.43;46.66
3132;BME280;62090;52.330;9.104;2023-05-16T12:57:01;101251.84;;;16.27;44.71
3132;BME280;62090;52.330;9.104;2023-05-16T12:59:32;101270.72;;;16.29;43.52
3132;BME280;62090;52.330;9.104;2023-05-16T13:02:03;101260.31;;;16.16;44.22
3132;BME280;62090;52.330;9.104;2023-05-16T13:04:35;101251.97;;;16.41;45.91
3132;BME280;62090;52.330;9.104;2023-05-16T13:07:05;101293.47;;;16.76;45.68
3132;BME280;62090;52.330;9.104;2023-05-16T13:09:35;101253.88;;;16.59;45.17
3132;BME280;62090;52.330;9.104;2023-05-16T13:12:05;101284.69;;;16.54;46.71
3132;BME280;62090;52.330;9.104;2023-05-16T13:14:35;101272.72;;;16.61;48.38
3132;BME280;62090;52.330;9.104;2023-05-16T13:17:07;101286.72;;;16.90;46.98
3132;BME280;62090;52.330;9.104;2023-05-16T13:19:40;101284.97;;;16.86;47.23
3132;BME280;62090;52.330;9.104;2023-05-16T13:22:11;101265.03;;;16.62;46.49